Serenade Of The Seas — C6FV8 — position and weather

sailwx.info

Track history (hours):
 
Tides and Currents Weather Stations Pressure Air Temp Water Temp Dewpoint Dewpoint Depression Visibility Wind Speed Wind Dir Waves Ship Positions

Serenade Of The Seas

Operator: Royal Caribbean Cruises Ltd

Last reported at 2015-Feb-28 23:10 UTC. Time now 2015-Mar-05 04:14 UTC.
Position N 29°52' W 089°55'.

Length 294 m; draft 8.5 m.

Type: Ship. MMSI: 311492000.

Date/timePositionNaut miles runAvg speedWind from/ knotsBaromVisibWave heightAir tempDewpointWater temp
2015-Feb-28 23:10N 29°52' W 089°55'710.5
2015-Feb-28 22:29N 29°57' W 090°01'2 0.2
2015-Feb-28 12:32N 29°57' W 090°04'  
2015-Feb-26 05:07N 25°45' W 079°32'814.1
2015-Feb-26 04:33N 25°51' W 079°27'1414.5
2015-Feb-26 03:33N 26°03' W 079°17'1413.6
2015-Feb-26 02:33N 26°11' W 079°05'1514.2
2015-Feb-26 01:29N 26°08' W 078°48'1414.6
2015-Feb-26 00:33N 26°05' W 078°34'  
2015-Feb-21 23:20N 29°53' W 089°58'4 4.4
2015-Feb-21 22:30N 29°56' W 089°60'3 0.7
2015-Feb-21 17:16N 29°57' W 090°04'0 0.0
2015-Feb-21 16:31N 29°57' W 090°04'0 0.0
2015-Feb-21 14:22N 29°57' W 090°04'1 0.4
2015-Feb-21 12:28N 29°57' W 090°03'58915.5
2015-Feb-19 22:33N 20°32' W 086°57'4 3.4
2015-Feb-19 21:29N 20°29' W 086°59'0 0.0
2015-Feb-19 20:32N 20°29' W 086°59'0 0.0
2015-Feb-19 19:32N 20°29' W 086°59'0 0.0
2015-Feb-19 18:20N 20°29' W 086°59'0 0.0
2015-Feb-19 17:29N 20°29' W 086°59'0 0.0
2015-Feb-19 16:29N 20°29' W 086°59'0 0.0
2015-Feb-19 15:29N 20°29' W 086°59'0 0.0
2015-Feb-19 14:29N 20°29' W 086°59'2 1.7
2015-Feb-19 13:33N 20°30' W 086°58'  
Track history (hours):
 
Tides and Currents Weather Stations Pressure Air Temp Water Temp Dewpoint Dewpoint Depression Visibility Wind Speed Wind Dir Waves Ship Positions

Serenade Of The Seas

Operator: Royal Caribbean Cruises Ltd

Last reported at 2015-Feb-28 23:10 UTC. Time now 2015-Mar-05 04:14 UTC.
Position N 29°52' W 089°55'.

Length 294 m; draft 8.5 m.

Type: Ship. MMSI: 311492000.

Date/timePositionNaut miles runAvg speedWind from/ knotsBaromVisibWave heightAir tempDewpointWater temp
2015-Feb-28 23:10N 29°52' W 089°55'710.5
2015-Feb-28 22:29N 29°57' W 090°01'2 0.2
2015-Feb-28 12:32N 29°57' W 090°04'  
2015-Feb-26 05:07N 25°45' W 079°32'814.1
2015-Feb-26 04:33N 25°51' W 079°27'1414.5
2015-Feb-26 03:33N 26°03' W 079°17'1413.6
2015-Feb-26 02:33N 26°11' W 079°05'1514.2
2015-Feb-26 01:29N 26°08' W 078°48'1414.6
2015-Feb-26 00:33N 26°05' W 078°34'  
2015-Feb-21 23:20N 29°53' W 089°58'4 4.4
2015-Feb-21 22:30N 29°56' W 089°60'3 0.7
2015-Feb-21 17:16N 29°57' W 090°04'0 0.0
2015-Feb-21 16:31N 29°57' W 090°04'0 0.0
2015-Feb-21 14:22N 29°57' W 090°04'1 0.4
2015-Feb-21 12:28N 29°57' W 090°03'58915.5
2015-Feb-19 22:33N 20°32' W 086°57'4 3.4
2015-Feb-19 21:29N 20°29' W 086°59'0 0.0
2015-Feb-19 20:32N 20°29' W 086°59'0 0.0
2015-Feb-19 19:32N 20°29' W 086°59'0 0.0
2015-Feb-19 18:20N 20°29' W 086°59'0 0.0
2015-Feb-19 17:29N 20°29' W 086°59'0 0.0
2015-Feb-19 16:29N 20°29' W 086°59'0 0.0
2015-Feb-19 15:29N 20°29' W 086°59'0 0.0
2015-Feb-19 14:29N 20°29' W 086°59'2 1.7
2015-Feb-19 13:33N 20°30' W 086°58'  

Dump ship's entire track history